createdAt,value
2018-12-15T00:00:01.749Z,91.10
2018-12-15T00:02:34.136Z,90.80
2018-12-15T00:05:07.643Z,90.70
2018-12-15T00:07:38.748Z,90.80
2018-12-15T00:10:09.931Z,90.50
2018-12-15T00:12:40.861Z,90.40
2018-12-15T00:15:12.216Z,90.20
2018-12-15T00:17:43.171Z,90.10
2018-12-15T00:20:13.946Z,90.00
2018-12-15T00:22:44.796Z,90.20
2018-12-15T00:25:15.580Z,90.50
2018-12-15T00:27:46.372Z,90.30
2018-12-15T00:30:17.200Z,90.10
2018-12-15T00:32:47.936Z,90.10
2018-12-15T00:35:18.731Z,90.00
2018-12-15T00:37:49.441Z,90.10
2018-12-15T00:40:20.751Z,90.30
2018-12-15T00:42:51.746Z,90.40
2018-12-15T00:45:22.781Z,90.40
2018-12-15T00:47:53.570Z,90.40
2018-12-15T00:50:24.376Z,90.50
2018-12-15T00:52:55.692Z,90.40
2018-12-15T00:55:26.531Z,90.30
2018-12-15T00:57:57.191Z,90.10
2018-12-15T01:00:28.054Z,90.10
2018-12-15T01:02:58.851Z,90.20
2018-12-15T01:05:29.756Z,90.30
2018-12-15T01:08:00.872Z,90.20
2018-12-15T01:10:31.848Z,90.20
2018-12-15T01:13:02.572Z,90.30
2018-12-15T01:15:38.374Z,90.60
2018-12-15T01:18:09.087Z,90.30
2018-12-15T01:20:39.989Z,90.50
2018-12-15T01:23:10.882Z,90.20
2018-12-15T01:25:41.859Z,90.10
2018-12-15T01:28:12.606Z,90.10
2018-12-15T01:30:43.397Z,90.10
2018-12-15T01:33:14.137Z,89.80
2018-12-15T01:35:44.972Z,89.70
2018-12-15T01:38:15.807Z,90.00
2018-12-15T01:40:47.030Z,90.00
2018-12-15T01:43:17.987Z,90.20
2018-12-15T01:45:49.438Z,90.10
2018-12-15T01:48:20.358Z,90.10
2018-12-15T01:50:51.237Z,90.00
2018-12-15T01:53:21.949Z,90.10
2018-12-15T01:55:52.747Z,90.10
2018-12-15T01:58:23.448Z,90.20
2018-12-15T02:00:54.427Z,90.40
2018-12-15T02:03:25.127Z,90.10
2018-12-15T02:05:56.183Z,90.20
2018-12-15T02:08:27.047Z,90.50
2018-12-15T02:11:00.237Z,90.50
2018-12-15T02:13:30.988Z,90.80
2018-12-15T02:16:02.128Z,90.80
2018-12-15T02:18:32.968Z,90.70
2018-12-15T02:21:03.747Z,91.00
2018-12-15T02:23:34.522Z,91.00
2018-12-15T02:26:05.555Z,91.00
2018-12-15T02:28:36.318Z,90.90
2018-12-15T02:31:07.093Z,91.10
2018-12-15T02:33:37.828Z,91.40
2018-12-15T02:36:09.032Z,91.50
2018-12-15T02:38:39.747Z,91.50
2018-12-15T02:41:10.868Z,91.50
2018-12-15T02:43:41.687Z,91.60
2018-12-15T02:46:12.547Z,91.60
2018-12-15T02:48:43.203Z,91.50
2018-12-15T02:51:14.047Z,91.90
2018-12-15T02:53:44.852Z,91.80
2018-12-15T02:56:15.589Z,91.90
2018-12-15T02:58:46.256Z,92.00
2018-12-15T03:01:17.008Z,91.90
2018-12-15T03:03:47.812Z,92.00
2018-12-15T03:06:18.528Z,92.20
2018-12-15T03:08:49.407Z,92.40
2018-12-15T03:11:20.147Z,92.40
2018-12-15T03:13:50.955Z,92.40
2018-12-15T03:16:21.867Z,92.30
2018-12-15T03:18:52.639Z,92.90
2018-12-15T03:21:23.482Z,92.60
2018-12-15T03:23:54.298Z,92.90
2018-12-15T03:26:25.228Z,93.10
2018-12-15T03:28:56.072Z,92.90
2018-12-15T03:31:26.783Z,93.10
2018-12-15T03:33:57.537Z,92.90
2018-12-15T03:36:29.347Z,93.00
2018-12-15T03:39:01.322Z,93.10
2018-12-15T03:41:34.282Z,93.20
2018-12-15T03:44:05.208Z,93.40
2018-12-15T03:46:36.022Z,93.60
2018-12-15T03:49:06.662Z,93.70
2018-12-15T03:51:37.453Z,93.70
2018-12-15T03:54:08.242Z,93.40
2018-12-15T03:56:39.048Z,93.80
2018-12-15T03:59:09.802Z,93.90
2018-12-15T04:01:40.514Z,93.90
2018-12-15T04:04:11.306Z,94.00
2018-12-15T04:06:43.211Z,94.10
2018-12-15T04:09:13.948Z,94.20
2018-12-15T04:11:44.593Z,94.50
2018-12-15T04:14:15.289Z,94.60
2018-12-15T04:16:47.069Z,94.70
2018-12-15T04:19:17.843Z,95.00
2018-12-15T04:21:48.579Z,95.10
2018-12-15T04:24:19.258Z,95.10
2018-12-15T04:26:49.968Z,95.30
2018-12-15T04:29:22.879Z,95.60
2018-12-15T04:31:53.668Z,95.60
2018-12-15T04:34:24.359Z,95.90
2018-12-15T04:36:55.218Z,95.90
2018-12-15T04:39:26.033Z,96.10
2018-12-15T04:41:57.227Z,96.10
2018-12-15T04:44:28.119Z,96.30
2018-12-15T04:46:59.429Z,96.30
2018-12-15T04:49:30.183Z,96.30
2018-12-15T04:52:01.023Z,96.30
2018-12-15T04:54:31.888Z,96.30
2018-12-15T04:57:02.650Z,96.20
2018-12-15T04:59:33.513Z,96.20
2018-12-15T05:02:04.544Z,96.10
2018-12-15T05:04:35.408Z,96.10
2018-12-15T05:07:07.413Z,96.10
2018-12-15T05:09:38.292Z,96.00
2018-12-15T05:12:09.203Z,96.00
2018-12-15T05:14:40.087Z,95.90
2018-12-15T05:17:11.148Z,95.90
2018-12-15T05:19:42.033Z,95.90
2018-12-15T05:22:13.240Z,95.90
2018-12-15T05:24:44.533Z,95.90
2018-12-15T05:27:15.483Z,95.90
2018-12-15T05:29:46.372Z,96.00
2018-12-15T05:32:17.373Z,95.90
2018-12-15T05:34:48.248Z,96.00
2018-12-15T05:37:19.323Z,96.00
2018-12-15T05:39:50.150Z,95.90
2018-12-15T05:42:21.698Z,95.90
2018-12-15T05:44:52.483Z,95.70
2018-12-15T05:47:23.453Z,95.80
2018-12-15T05:49:54.253Z,95.70
2018-12-15T05:52:25.134Z,95.70
2018-12-15T05:54:55.958Z,95.70
2018-12-15T05:57:26.809Z,95.40
2018-12-15T05:59:57.543Z,95.40
2018-12-15T06:02:28.963Z,95.30
2018-12-15T06:05:00.149Z,95.40
2018-12-15T06:07:30.943Z,95.00
2018-12-15T06:10:02.253Z,95.10
2018-12-15T06:12:33.156Z,95.30
2018-12-15T06:15:03.864Z,94.80
2018-12-15T06:17:34.965Z,94.80
2018-12-15T06:20:06.226Z,94.90
2018-12-15T06:22:37.169Z,94.70
2018-12-15T06:25:08.090Z,94.30
2018-12-15T06:27:39.236Z,94.40
2018-12-15T06:30:10.339Z,94.50
2018-12-15T06:32:41.229Z,94.40
2018-12-15T06:35:12.140Z,94.10
2018-12-15T06:37:43.023Z,94.10
2018-12-15T06:40:13.855Z,94.20
2018-12-15T06:42:45.354Z,94.10
2018-12-15T06:45:16.396Z,94.00
2018-12-15T06:47:47.779Z,94.00
2018-12-15T06:50:18.875Z,94.20
2018-12-15T06:52:50.033Z,94.00
2018-12-15T06:55:21.033Z,94.30
2018-12-15T06:57:52.016Z,93.90
2018-12-15T07:00:23.074Z,93.70
2018-12-15T07:02:54.283Z,93.80
2018-12-15T07:05:25.303Z,93.60
2018-12-15T07:07:56.204Z,93.70
2018-12-15T07:10:27.103Z,93.30
2018-12-15T07:12:58.158Z,93.40
2018-12-15T07:15:28.945Z,93.60
2018-12-15T07:18:00.223Z,93.10
2018-12-15T07:20:31.143Z,93.00
2018-12-15T07:23:02.169Z,93.00
2018-12-15T07:25:33.672Z,92.90
2018-12-15T07:28:04.707Z,92.80
2018-12-15T07:30:35.954Z,92.50
2018-12-15T07:33:06.913Z,93.20
2018-12-15T07:35:38.152Z,92.60
2018-12-15T07:38:09.506Z,92.40
2018-12-15T07:40:40.628Z,92.90
2018-12-15T07:43:12.268Z,92.20
2018-12-15T07:45:43.022Z,92.50
2018-12-15T07:48:16.156Z,92.40
2018-12-15T07:50:47.488Z,92.20
2018-12-15T07:53:18.318Z,92.20
2018-12-15T07:55:49.381Z,92.40
2018-12-15T07:58:20.508Z,92.10
2018-12-15T08:00:52.108Z,92.80
2018-12-15T08:03:22.888Z,92.60
2018-12-15T08:05:53.774Z,92.80
2018-12-15T08:08:25.294Z,91.90
2018-12-15T08:11:00.878Z,92.50
2018-12-15T08:13:33.998Z,92.60
2018-12-15T08:16:04.883Z,92.60
2018-12-15T08:18:35.853Z,92.60
2018-12-15T08:21:06.853Z,92.50
2018-12-15T08:23:38.043Z,92.30
2018-12-15T08:26:08.882Z,92.30
2018-12-15T08:28:39.722Z,92.40
2018-12-15T08:31:10.693Z,92.10
2018-12-15T08:33:41.733Z,92.50
2018-12-15T08:36:12.643Z,91.90
2018-12-15T08:38:43.673Z,91.80
2018-12-15T08:41:14.593Z,91.70
2018-12-15T08:43:45.931Z,91.90
2018-12-15T08:46:18.193Z,92.30
2018-12-15T08:48:49.263Z,92.00
2018-12-15T08:51:20.647Z,92.10
2018-12-15T08:53:51.703Z,91.70
2018-12-15T08:56:22.657Z,91.80
2018-12-15T08:58:53.692Z,92.00
2018-12-15T09:01:24.552Z,91.50
2018-12-15T09:03:55.454Z,91.80
2018-12-15T09:06:26.463Z,91.90
2018-12-15T09:08:57.467Z,91.10
2018-12-15T09:11:28.398Z,91.60
2018-12-15T09:13:59.363Z,91.30
2018-12-15T09:16:30.282Z,91.40
2018-12-15T09:19:01.307Z,91.20
2018-12-15T09:21:32.242Z,91.10
2018-12-15T09:24:03.377Z,90.80
2018-12-15T09:26:34.382Z,91.00
2018-12-15T09:29:06.436Z,90.70
2018-12-15T09:31:37.562Z,90.90
2018-12-15T09:34:08.492Z,90.30
2018-12-15T09:36:39.462Z,90.20
2018-12-15T09:39:10.571Z,89.10
2018-12-15T09:41:41.662Z,90.30
2018-12-15T09:44:13.166Z,88.10
2018-12-15T09:46:44.222Z,89.20
2018-12-15T09:49:17.963Z,88.30
2018-12-15T09:51:48.256Z,87.00
2018-12-15T09:54:19.177Z,87.50
2018-12-15T09:56:49.887Z,88.00
2018-12-15T09:59:20.746Z,86.50
2018-12-15T10:01:52.141Z,86.50
2018-12-15T10:04:23.158Z,86.80
2018-12-15T10:06:54.142Z,86.50
2018-12-15T10:09:25.291Z,85.20
2018-12-15T10:11:56.492Z,85.70
2018-12-15T10:14:27.471Z,86.00
2018-12-15T10:16:58.311Z,84.80
2018-12-15T10:19:29.407Z,86.00
2018-12-15T10:22:00.511Z,85.90
2018-12-15T10:24:31.642Z,86.00
2018-12-15T10:27:02.617Z,85.20
2018-12-15T10:29:38.547Z,84.70
2018-12-15T10:32:14.418Z,84.20
2018-12-15T10:34:45.826Z,86.00
2018-12-15T10:37:17.102Z,84.60
2018-12-15T10:39:48.377Z,84.70
2018-12-15T10:42:19.596Z,85.40
2018-12-15T10:44:51.212Z,83.90
2018-12-15T10:47:22.176Z,83.10
2018-12-15T10:49:55.496Z,84.10
2018-12-15T10:52:28.527Z,84.60
2018-12-15T10:54:59.547Z,83.60
2018-12-15T10:57:30.591Z,83.80
2018-12-15T11:00:01.617Z,82.90
2018-12-15T11:02:32.697Z,84.00
2018-12-15T11:05:04.782Z,84.40
2018-12-15T11:07:35.694Z,82.60
2018-12-15T11:10:07.001Z,83.90
2018-12-15T11:12:37.861Z,82.70
2018-12-15T11:15:09.702Z,82.10
2018-12-15T11:17:40.643Z,82.00
2018-12-15T11:20:11.806Z,81.30
2018-12-15T11:22:42.667Z,82.50
2018-12-15T11:25:14.922Z,82.20
2018-12-15T11:27:45.807Z,82.50
2018-12-15T11:30:16.857Z,83.00
2018-12-15T11:32:47.748Z,83.30
2018-12-15T11:35:18.897Z,81.70
2018-12-15T11:37:50.297Z,83.60
2018-12-15T11:40:21.312Z,81.60
2018-12-15T11:42:52.127Z,81.50
2018-12-15T11:45:23.972Z,81.00
2018-12-15T11:47:54.982Z,80.20
2018-12-15T11:50:26.079Z,82.60
2018-12-15T11:55:27.427Z,80.30
2018-12-15T11:57:58.682Z,81.30
2018-12-15T12:00:30.094Z,81.30
2018-12-15T12:03:01.328Z,80.80
2018-12-15T12:05:32.279Z,82.00
2018-12-15T12:08:03.233Z,80.60
2018-12-15T12:10:34.207Z,80.00
2018-12-15T12:13:05.003Z,79.60
2018-12-15T12:15:36.292Z,79.90
2018-12-15T12:18:07.218Z,80.50
2018-12-15T12:20:38.377Z,79.50
2018-12-15T12:23:09.722Z,80.00
2018-12-15T12:25:42.872Z,79.80
2018-12-15T12:28:15.957Z,80.10
2018-12-15T12:30:46.937Z,79.40
2018-12-15T12:33:17.779Z,81.00
2018-12-15T12:35:48.742Z,79.40
2018-12-15T12:38:20.750Z,81.20
2018-12-15T12:40:51.832Z,79.60
2018-12-15T12:43:22.912Z,79.50
2018-12-15T12:45:54.202Z,78.90
2018-12-15T12:48:25.273Z,79.20
2018-12-15T12:50:56.407Z,80.00
2018-12-15T12:53:27.353Z,79.80
2018-12-15T12:55:58.368Z,80.40
2018-12-15T12:58:29.362Z,79.80
2018-12-15T13:01:00.567Z,79.40
2018-12-15T13:03:31.775Z,79.00
2018-12-15T13:06:03.097Z,79.10
2018-12-15T13:08:34.338Z,80.10
2018-12-15T13:11:05.582Z,80.80
2018-12-15T13:13:36.919Z,79.50
2018-12-15T13:16:08.458Z,79.50
2018-12-15T13:18:39.693Z,80.20
2018-12-15T13:21:11.493Z,79.70
2018-12-15T13:23:42.757Z,80.50
2018-12-15T13:26:14.236Z,79.20
2018-12-15T13:28:45.507Z,80.20
2018-12-15T13:31:16.919Z,80.50
2018-12-15T13:33:48.213Z,79.80
2018-12-15T13:36:20.539Z,80.40
2018-12-15T13:38:51.797Z,81.20
2018-12-15T13:41:23.276Z,80.20
2018-12-15T13:43:54.598Z,80.40
2018-12-15T13:46:26.467Z,81.30
2018-12-15T13:48:57.747Z,80.70
2018-12-15T13:51:29.357Z,81.00
2018-12-15T13:54:00.622Z,81.60
2018-12-15T13:56:32.172Z,81.90
2018-12-15T13:59:03.647Z,81.60
2018-12-15T14:01:35.037Z,82.10
2018-12-15T14:04:06.397Z,82.10
2018-12-15T14:06:37.858Z,82.50
2018-12-15T14:09:09.972Z,83.30
2018-12-15T14:11:41.323Z,83.70
2018-12-15T14:14:12.567Z,83.60
2018-12-15T14:16:44.072Z,83.60
2018-12-15T14:19:15.571Z,83.90
2018-12-15T14:21:47.212Z,83.80
2018-12-15T14:24:18.047Z,84.20
2018-12-15T14:26:49.062Z,85.00
2018-12-15T14:29:20.347Z,85.20
2018-12-15T14:31:51.792Z,85.10
2018-12-15T14:34:23.327Z,85.20
2018-12-15T14:36:54.867Z,85.90
2018-12-15T14:39:26.230Z,84.80
2018-12-15T14:41:57.676Z,85.30
2018-12-15T14:44:28.988Z,85.10
2018-12-15T14:47:00.552Z,85.30
2018-12-15T14:49:31.828Z,85.10
2018-12-15T14:52:05.308Z,85.40
2018-12-15T14:54:36.505Z,85.30
2018-12-15T14:57:07.817Z,85.50
2018-12-15T14:59:39.121Z,85.90
2018-12-15T15:02:10.587Z,85.70
2018-12-15T15:04:41.828Z,85.90
2018-12-15T15:07:13.602Z,86.40
2018-12-15T15:09:44.867Z,86.40
2018-12-15T15:12:16.232Z,86.60
2018-12-15T15:14:47.537Z,85.70
2018-12-15T15:17:18.972Z,85.50
2018-12-15T15:19:50.147Z,85.10
2018-12-15T15:22:21.706Z,85.20
2018-12-15T15:24:52.982Z,87.80
2018-12-15T15:27:24.286Z,85.30
2018-12-15T15:29:55.387Z,85.20
2018-12-15T15:32:26.642Z,85.00
2018-12-15T15:34:57.807Z,85.10
2018-12-15T15:37:29.042Z,84.90
2018-12-15T15:40:00.232Z,85.20
2018-12-15T15:42:31.697Z,85.30
2018-12-15T15:45:03.067Z,85.80
2018-12-15T15:47:35.057Z,86.10
2018-12-15T15:50:07.246Z,86.30
2018-12-15T15:52:38.846Z,86.60
2018-12-15T15:55:10.540Z,87.00
2018-12-15T15:57:42.157Z,87.00
2018-12-15T16:00:14.357Z,87.10
2018-12-15T16:02:45.701Z,87.50
2018-12-15T16:05:16.606Z,87.90
2018-12-15T16:07:47.652Z,88.20
2018-12-15T16:10:18.461Z,88.40
2018-12-15T16:12:49.492Z,88.40
2018-12-15T16:15:20.987Z,88.90
2018-12-15T16:17:52.378Z,88.70
2018-12-15T16:20:23.737Z,88.60
2018-12-15T16:22:54.737Z,88.60
2018-12-15T16:27:55.802Z,88.80
2018-12-15T16:30:26.858Z,89.20
2018-12-15T16:32:58.287Z,89.30
2018-12-15T16:35:29.567Z,89.80
2018-12-15T16:38:01.113Z,89.40
2018-12-15T16:40:31.956Z,89.80
2018-12-15T16:43:03.047Z,90.00
2018-12-15T16:45:34.252Z,90.50
2018-12-15T16:48:06.037Z,90.30
2018-12-15T16:50:36.932Z,90.60
2018-12-15T16:53:07.972Z,90.10
2018-12-15T16:55:39.377Z,90.20
2018-12-15T16:58:10.752Z,90.20
2018-12-15T17:00:41.822Z,90.30
2018-12-15T17:03:13.085Z,90.20
2018-12-15T17:05:43.912Z,90.30
2018-12-15T17:08:15.397Z,90.30
2018-12-15T17:10:46.618Z,90.30
2018-12-15T17:13:17.602Z,90.20
2018-12-15T17:15:49.692Z,90.10
2018-12-15T17:18:20.922Z,89.80
2018-12-15T17:20:56.614Z,89.80
2018-12-15T17:23:25.298Z,89.90
2018-12-15T17:25:57.012Z,90.00
2018-12-15T17:28:29.032Z,90.10
2018-12-15T17:30:59.762Z,90.10
2018-12-15T17:33:31.097Z,90.20
2018-12-15T17:36:02.016Z,90.10
2018-12-15T17:38:33.341Z,90.20
2018-12-15T17:41:04.226Z,90.30
2018-12-15T17:43:37.440Z,90.30
2018-12-15T17:46:08.717Z,90.30
2018-12-15T17:48:42.352Z,90.40
2018-12-15T17:51:16.072Z,90.30
2018-12-15T17:53:47.255Z,90.50
2018-12-15T17:56:18.092Z,90.50
2018-12-15T17:58:51.043Z,90.60
2018-12-15T18:01:22.367Z,90.80
2018-12-15T18:03:53.457Z,91.00
2018-12-15T18:06:24.857Z,91.10
2018-12-15T18:08:55.857Z,91.20
2018-12-15T18:11:26.782Z,91.20
2018-12-15T18:13:57.707Z,91.20
2018-12-15T18:16:28.472Z,91.40
2018-12-15T18:18:59.907Z,91.60
2018-12-15T18:21:30.927Z,91.50
2018-12-15T18:24:01.862Z,91.60
2018-12-15T18:26:32.522Z,91.70
2018-12-15T18:29:03.442Z,91.80
2018-12-15T18:31:34.312Z,91.90
2018-12-15T18:34:05.102Z,91.90
2018-12-15T18:36:36.057Z,92.00
2018-12-15T18:39:08.577Z,92.00
2018-12-15T18:41:41.857Z,92.10
2018-12-15T18:44:13.042Z,92.00
2018-12-15T18:46:43.857Z,91.80
2018-12-15T18:49:15.167Z,91.90
2018-12-15T18:51:46.232Z,92.00
2018-12-15T18:54:17.605Z,92.00
2018-12-15T18:56:48.548Z,92.00
2018-12-15T18:59:20.767Z,92.00
2018-12-15T19:01:51.791Z,91.90
2018-12-15T19:04:22.814Z,92.00
2018-12-15T19:06:53.844Z,92.10
2018-12-15T19:09:24.998Z,91.70
2018-12-15T19:11:55.939Z,91.50
2018-12-15T19:14:30.887Z,91.50
2018-12-15T19:17:02.162Z,91.40
2018-12-15T19:19:33.158Z,91.40
2018-12-15T19:22:04.062Z,91.30
2018-12-15T19:24:36.342Z,91.30
2018-12-15T19:27:07.603Z,91.20
2018-12-15T19:29:39.112Z,91.10
2018-12-15T19:32:10.405Z,91.20
2018-12-15T19:34:41.458Z,91.20
2018-12-15T19:37:13.797Z,91.30
2018-12-15T19:39:45.102Z,91.40
2018-12-15T19:42:16.207Z,91.20
2018-12-15T19:44:48.607Z,91.20
2018-12-15T19:47:20.907Z,91.30
2018-12-15T19:49:52.252Z,91.40
2018-12-15T19:52:23.217Z,91.40
2018-12-15T19:54:54.638Z,91.40
2018-12-15T19:57:40.057Z,91.20
2018-12-15T20:00:26.318Z,90.90
2018-12-15T20:03:02.487Z,90.90
2018-12-15T20:05:34.192Z,90.60
2018-12-15T20:08:05.707Z,90.70
2018-12-15T20:10:36.523Z,90.80
2018-12-15T20:13:08.582Z,90.50
2018-12-15T20:15:40.648Z,90.30
2018-12-15T20:18:11.582Z,90.30
2018-12-15T20:20:42.522Z,90.30
2018-12-15T20:23:13.472Z,90.20
2018-12-15T20:25:44.423Z,90.20
2018-12-15T20:28:15.511Z,90.30
2018-12-15T20:30:46.502Z,90.10
2018-12-15T20:33:17.237Z,90.10
2018-12-15T20:35:48.107Z,90.20
2018-12-15T20:38:19.868Z,90.20
2018-12-15T20:40:50.727Z,90.20
2018-12-15T20:43:22.632Z,90.30
2018-12-15T20:45:53.716Z,90.10
2018-12-15T20:48:24.576Z,90.00
2018-12-15T20:50:55.767Z,90.30
2018-12-15T20:53:27.178Z,90.00
2018-12-15T20:55:58.232Z,89.90
2018-12-15T20:58:29.011Z,90.00
2018-12-15T21:01:01.048Z,89.40
2018-12-15T21:03:32.022Z,89.10
2018-12-15T21:06:02.817Z,89.30
2018-12-15T21:08:34.615Z,89.30
2018-12-15T21:11:05.702Z,89.10
2018-12-15T21:13:36.435Z,89.00
2018-12-15T21:16:07.492Z,89.20
2018-12-15T21:18:38.457Z,89.30
2018-12-15T21:21:09.483Z,88.90
2018-12-15T21:23:40.337Z,89.40
2018-12-15T21:26:12.523Z,89.20
2018-12-15T21:28:43.412Z,89.20
2018-12-15T21:31:14.313Z,89.10
2018-12-15T21:33:45.213Z,89.60
2018-12-15T21:36:16.163Z,89.70
2018-12-15T21:38:47.003Z,89.50
2018-12-15T21:41:17.909Z,89.90
2018-12-15T21:43:48.734Z,90.00
2018-12-15T21:46:19.778Z,90.40
2018-12-15T21:48:50.735Z,90.50
2018-12-15T21:51:22.237Z,90.70
2018-12-15T21:53:53.132Z,90.60
2018-12-15T21:56:24.272Z,90.60
2018-12-15T21:58:55.203Z,90.60
2018-12-15T22:01:26.142Z,90.80
2018-12-15T22:03:56.983Z,90.70
2018-12-15T22:06:27.923Z,90.80
2018-12-15T22:08:58.723Z,90.80
2018-12-15T22:11:29.642Z,91.00
2018-12-15T22:14:00.503Z,91.10
2018-12-15T22:16:31.810Z,91.20
2018-12-15T22:19:03.923Z,91.10
2018-12-15T22:21:34.874Z,91.10
2018-12-15T22:24:05.713Z,91.30
2018-12-15T22:26:36.762Z,91.30
2018-12-15T22:29:07.638Z,91.40
2018-12-15T22:31:38.698Z,91.70
2018-12-15T22:34:09.512Z,92.00
2018-12-15T22:36:40.526Z,91.60
2018-12-15T22:39:11.339Z,91.70
2018-12-15T22:41:42.322Z,91.60
2018-12-15T22:44:14.414Z,91.70
2018-12-15T22:46:45.502Z,91.70
2018-12-15T22:49:16.331Z,91.70
2018-12-15T22:51:47.747Z,91.90
2018-12-15T22:54:18.667Z,91.90
2018-12-15T22:56:49.737Z,92.00
2018-12-15T22:59:20.567Z,92.00
2018-12-15T23:01:51.457Z,92.00
2018-12-15T23:04:22.912Z,92.00
2018-12-15T23:06:53.822Z,92.50
2018-12-15T23:09:24.707Z,92.10
2018-12-15T23:11:55.612Z,92.10
2018-12-15T23:14:28.486Z,92.10
2018-12-15T23:16:59.352Z,92.10
2018-12-15T23:19:30.231Z,92.20
2018-12-15T23:22:01.206Z,92.30
2018-12-15T23:24:33.151Z,92.30
2018-12-15T23:27:04.301Z,92.30
2018-12-15T23:29:36.251Z,92.50
2018-12-15T23:32:07.212Z,92.70
2018-12-15T23:34:38.022Z,92.60
2018-12-15T23:37:08.993Z,92.70
2018-12-15T23:39:39.932Z,92.70
2018-12-15T23:42:10.912Z,92.80
2018-12-15T23:44:42.006Z,92.60
2018-12-15T23:47:13.022Z,92.80
2018-12-15T23:49:44.046Z,92.80
2018-12-15T23:52:15.442Z,92.90
2018-12-15T23:54:46.266Z,92.80
2018-12-15T23:57:17.318Z,92.90
2018-12-15T23:59:48.201Z,92.90
